Strang, Oklahoma
Current Conditions -  °F | °C
As of 4:35 PM on Friday 19 Dec 2014 (Local Time) from KGCM Reporting Station
Haze Haze  
Wind Chill: 39°   Ceiling: 1000
Heat Index: 39°   Visibility: 5mi
Dew Point: 36°   Wind: 0mph
Humidity: 87%   Direction: NA
Pressure: 30.24"   Gusts: NA
Location:  36.41°N, 95.13°W
Report Text: KGCM 192235Z AUTO 00000KT 5SM BR OVC010 04/02 A3024 RMK AO2
Loading
Personal Weather Stations






























Interactive Weather Map New forecast layout! Learn more

10-Day Weather Forecast

Advertisements
Track Severe Weather on mobile